createdAt,value
2019-04-04T00:01:07.637Z,26.45
2019-04-04T00:03:37.081Z,35.92
2019-04-04T00:06:06.506Z,32.20
2019-04-04T00:08:35.953Z,27.10
2019-04-04T00:11:06.060Z,30.02
2019-04-04T00:13:36.088Z,28.20
2019-04-04T00:16:05.511Z,30.90
2019-04-04T00:18:34.953Z,25.80
2019-04-04T00:21:04.370Z,24.95
2019-04-04T00:23:33.812Z,25.85
2019-04-04T00:26:03.328Z,23.85
2019-04-04T00:28:32.844Z,29.32
2019-04-04T00:31:02.274Z,28.17
2019-04-04T00:33:31.713Z,26.82
2019-04-04T00:36:02.651Z,33.92
2019-04-04T00:38:38.073Z,31.02
2019-04-04T00:41:07.381Z,36.08
2019-04-04T00:43:36.825Z,38.08
2019-04-04T00:46:06.237Z,32.58
2019-04-04T00:48:35.676Z,29.00
2019-04-04T00:51:07.699Z,27.02
2019-04-04T00:53:36.244Z,30.30
2019-04-04T00:56:05.756Z,31.23
2019-04-04T00:58:35.202Z,31.97
2019-04-04T01:01:04.630Z,30.00
2019-04-04T01:03:34.176Z,32.38
2019-04-04T01:06:03.804Z,26.45
2019-04-04T01:08:33.236Z,29.77
2019-04-04T01:11:02.723Z,30.48
2019-04-04T01:13:32.170Z,33.78
2019-04-04T01:16:02.903Z,30.30
2019-04-04T01:18:32.821Z,31.93
2019-04-04T01:21:02.238Z,29.27
2019-04-04T01:23:31.691Z,26.65
2019-04-04T01:26:03.247Z,24.43
2019-04-04T01:28:32.420Z,27.62
2019-04-04T01:31:03.302Z,25.48
2019-04-04T01:33:32.740Z,28.90
2019-04-04T01:36:02.187Z,26.07
2019-04-04T01:38:31.608Z,28.70
2019-04-04T01:41:03.984Z,28.92
2019-04-04T01:43:32.265Z,26.05
2019-04-04T01:46:01.709Z,24.92
2019-04-04T01:48:32.562Z,32.35
2019-04-04T01:51:02.012Z,26.82
2019-04-04T01:53:31.425Z,31.07
2019-04-04T01:56:00.875Z,26.15
2019-04-04T01:58:30.293Z,27.02
2019-04-04T02:00:59.784Z,30.85
2019-04-04T02:03:29.192Z,34.30
2019-04-04T02:05:58.768Z,31.37
2019-04-04T02:08:28.128Z,30.32
2019-04-04T02:11:00.314Z,30.15
2019-04-04T02:13:35.456Z,25.40
2019-04-04T02:16:04.898Z,35.25
2019-04-04T02:18:34.311Z,28.80
2019-04-04T02:21:03.747Z,31.55
2019-04-04T02:23:34.315Z,35.43
2019-04-04T02:26:05.239Z,32.48
2019-04-04T02:28:34.868Z,30.52
2019-04-04T02:31:07.312Z,30.88
2019-04-04T02:33:36.729Z,25.50
2019-04-04T02:36:10.868Z,31.12
2019-04-04T02:38:40.276Z,25.50
2019-04-04T02:41:09.721Z,28.35
2019-04-04T02:43:54.001Z,32.28
2019-04-04T02:46:35.656Z,31.42
2019-04-04T02:49:05.249Z,33.05
2019-04-04T02:51:40.224Z,38.13
2019-04-04T02:54:08.689Z,30.12
2019-04-04T02:56:42.577Z,31.45
2019-04-04T02:59:11.989Z,27.17
2019-04-04T03:01:41.429Z,34.73
2019-04-04T03:04:13.473Z,26.60
2019-04-04T03:06:58.526Z,30.25
2019-04-04T03:09:28.169Z,35.75
2019-04-04T03:11:57.611Z,36.58
2019-04-04T03:14:41.905Z,32.15
2019-04-04T03:17:11.347Z,26.82
2019-04-04T03:19:43.522Z,34.35
2019-04-04T03:22:11.891Z,36.13
2019-04-04T03:24:44.779Z,31.52
2019-04-04T03:27:12.433Z,29.95
2019-04-04T03:29:55.337Z,28.32
2019-04-04T03:32:24.802Z,28.87
2019-04-04T03:34:54.202Z,31.57
2019-04-04T03:37:29.719Z,28.57
2019-04-04T03:40:01.842Z,33.60
2019-04-04T03:42:31.254Z,34.48
2019-04-04T03:45:03.851Z,31.73
2019-04-04T03:47:33.387Z,33.25
2019-04-04T03:50:02.881Z,28.20
2019-04-04T03:52:49.317Z,31.48
2019-04-04T03:55:18.733Z,29.50
2019-04-04T03:57:48.187Z,29.45
2019-04-04T04:00:29.368Z,32.15
2019-04-04T04:02:58.903Z,32.90
2019-04-04T04:05:34.154Z,33.30
2019-04-04T04:08:01.008Z,32.73
2019-04-04T04:10:33.497Z,30.60
2019-04-04T04:13:01.665Z,31.75
2019-04-04T04:15:31.119Z,36.95
2019-04-04T04:18:00.537Z,31.75
2019-04-04T04:20:30.002Z,33.53
2019-04-04T04:22:59.994Z,37.30
2019-04-04T04:25:29.428Z,30.57
2019-04-04T04:28:02.818Z,30.32
2019-04-04T04:30:29.982Z,49.40
2019-04-04T04:32:59.403Z,27.62
2019-04-04T04:35:28.845Z,38.28
2019-04-04T04:37:58.362Z,47.13
2019-04-04T04:40:27.794Z,45.65
2019-04-04T04:42:59.803Z,36.15
2019-04-04T04:45:28.348Z,37.42
2019-04-04T04:47:57.764Z,33.88
2019-04-04T04:50:27.206Z,61.95
2019-04-04T04:52:56.620Z,42.05
2019-04-04T04:55:27.203Z,37.20
2019-04-04T04:57:57.181Z,37.50
2019-04-04T05:00:27.950Z,41.90
2019-04-04T05:02:57.524Z,37.67
2019-04-04T05:05:31.175Z,36.10
2019-04-04T05:07:59.643Z,44.60
2019-04-04T05:10:29.099Z,36.68
2019-04-04T05:12:58.508Z,38.92
2019-04-04T05:15:27.954Z,36.60
2019-04-04T05:17:57.367Z,32.53
2019-04-04T05:20:29.779Z,29.15
2019-04-04T05:22:58.132Z,29.15
2019-04-04T05:25:30.858Z,34.30
2019-04-04T05:27:58.706Z,28.80
2019-04-04T05:30:28.163Z,30.65
2019-04-04T05:32:57.572Z,28.90
2019-04-04T05:35:27.029Z,31.42
2019-04-04T05:37:56.446Z,30.80
2019-04-04T05:40:25.996Z,37.58
2019-04-04T05:42:55.508Z,37.83
2019-04-04T05:45:24.956Z,27.75
2019-04-04T05:47:55.932Z,25.92
2019-04-04T05:50:25.922Z,35.10
2019-04-04T05:52:55.363Z,31.42
2019-04-04T05:55:24.811Z,28.27
2019-04-04T05:57:54.267Z,35.85
2019-04-04T06:00:26.920Z,34.38
2019-04-04T06:02:54.805Z,55.23
2019-04-04T06:05:26.989Z,54.63
2019-04-04T06:07:55.383Z,41.98
2019-04-04T06:10:24.830Z,67.72
2019-04-04T06:12:56.281Z,31.60
2019-04-04T06:15:25.493Z,34.83
2019-04-04T06:17:54.947Z,34.88
2019-04-04T06:20:24.360Z,39.15
2019-04-04T06:22:53.811Z,45.63
2019-04-04T06:25:23.240Z,33.38
2019-04-04T06:27:52.790Z,34.10
2019-04-04T06:30:22.512Z,68.72
2019-04-04T06:32:52.068Z,29.23
2019-04-04T06:35:21.513Z,31.10
2019-04-04T06:37:51.425Z,105.52
2019-04-04T06:40:21.500Z,30.77
2019-04-04T06:42:50.984Z,54.00
2019-04-04T06:45:20.702Z,36.55
2019-04-04T06:47:50.167Z,33.20
2019-04-04T06:50:19.591Z,26.42
2019-04-04T06:52:50.437Z,40.23
2019-04-04T06:55:20.170Z,28.70
2019-04-04T06:57:51.291Z,30.88
2019-04-04T07:00:21.064Z,39.73
2019-04-04T07:02:50.628Z,26.27
2019-04-04T07:05:20.269Z,29.00
2019-04-04T07:07:50.683Z,28.73
2019-04-04T07:10:23.137Z,28.25
2019-04-04T07:13:04.741Z,29.42
2019-04-04T07:15:23.816Z,27.82
2019-04-04T07:17:53.298Z,27.98
2019-04-04T07:20:22.809Z,36.50
2019-04-04T07:22:55.614Z,23.12
2019-04-04T07:25:23.382Z,23.95
2019-04-04T07:27:52.849Z,32.58
2019-04-04T07:30:22.673Z,30.10
2019-04-04T07:32:52.121Z,39.78
2019-04-04T07:35:21.544Z,30.72
2019-04-04T07:37:52.985Z,27.60
2019-04-04T07:40:22.119Z,24.07
2019-04-04T07:42:51.998Z,40.35
2019-04-04T07:45:21.514Z,21.50
2019-04-04T07:47:51.099Z,29.72
2019-04-04T07:50:20.506Z,23.25
2019-04-04T07:52:49.974Z,28.05
2019-04-04T07:55:19.389Z,24.43
2019-04-04T07:57:51.136Z,33.38
2019-04-04T08:00:20.471Z,23.85
2019-04-04T08:02:49.977Z,20.12
2019-04-04T08:05:21.346Z,25.37
2019-04-04T08:07:50.797Z,36.83
2019-04-04T08:10:21.199Z,29.27
2019-04-04T08:12:50.727Z,26.87
2019-04-04T08:15:20.246Z,30.00
2019-04-04T08:17:51.406Z,22.17
2019-04-04T08:20:20.844Z,24.47
2019-04-04T08:22:50.509Z,23.95
2019-04-04T08:25:19.967Z,48.28
2019-04-04T08:27:49.384Z,21.82
2019-04-04T08:30:19.865Z,21.25
2019-04-04T08:32:49.202Z,16.55
2019-04-04T08:35:18.649Z,30.95
2019-04-04T08:37:48.070Z,34.65
2019-04-04T08:40:17.941Z,21.85
2019-04-04T08:42:47.360Z,22.62
2019-04-04T08:45:16.815Z,26.15
2019-04-04T08:47:46.243Z,26.73
2019-04-04T08:50:15.713Z,24.92
2019-04-04T08:52:45.380Z,26.23
2019-04-04T08:55:14.840Z,23.73
2019-04-04T08:57:44.354Z,25.40
2019-04-04T09:00:15.358Z,32.60
2019-04-04T09:02:46.667Z,36.03
2019-04-04T09:05:16.121Z,21.90
2019-04-04T09:07:45.546Z,74.22
2019-04-04T09:10:15.000Z,24.63
2019-04-04T09:12:44.520Z,28.20
2019-04-04T09:15:14.229Z,30.82
2019-04-04T09:17:45.084Z,32.45
2019-04-04T09:20:14.531Z,18.73
2019-04-04T09:22:43.945Z,20.32
2019-04-04T09:25:13.492Z,23.70
2019-04-04T09:27:42.909Z,20.35
2019-04-04T09:30:14.091Z,14.70
2019-04-04T09:32:43.615Z,35.92
2019-04-04T09:35:13.168Z,25.15
2019-04-04T09:37:42.684Z,21.77
2019-04-04T09:40:13.772Z,33.73
2019-04-04T09:42:43.187Z,17.48
2019-04-04T09:45:12.635Z,19.62
2019-04-04T09:47:42.151Z,21.40
2019-04-04T09:50:12.878Z,32.60
2019-04-04T09:52:42.297Z,19.57
2019-04-04T09:55:11.750Z,27.82
2019-04-04T09:57:41.159Z,16.80
2019-04-04T10:00:12.727Z,24.12
2019-04-04T10:02:42.153Z,15.05
2019-04-04T10:05:11.598Z,25.02
2019-04-04T10:07:41.006Z,15.68
2019-04-04T10:10:10.464Z,21.95
2019-04-04T10:12:39.882Z,18.05
2019-04-04T10:15:09.430Z,17.17
2019-04-04T10:17:38.856Z,18.50
2019-04-04T10:20:08.331Z,21.10
2019-04-04T10:22:37.797Z,16.73
2019-04-04T10:25:07.441Z,38.88
2019-04-04T10:27:36.860Z,22.52
2019-04-04T10:30:08.993Z,17.57
2019-04-04T10:32:38.410Z,23.00
2019-04-04T10:35:07.960Z,18.30
2019-04-04T10:37:37.368Z,17.77
2019-04-04T10:40:07.100Z,21.93
2019-04-04T10:42:36.518Z,30.37
2019-04-04T10:45:07.117Z,22.55
2019-04-04T10:47:36.531Z,28.75
2019-04-04T10:50:07.315Z,25.35
2019-04-04T10:52:36.732Z,12.80
2019-04-04T10:55:06.857Z,21.50
2019-04-04T10:57:36.301Z,23.32
2019-04-04T11:00:08.490Z,24.75
2019-04-04T11:02:38.020Z,17.17
2019-04-04T11:05:07.435Z,39.38
2019-04-04T11:07:36.984Z,29.42
2019-04-04T11:10:06.391Z,34.08
2019-04-04T11:12:35.940Z,59.08
2019-04-04T11:15:06.335Z,17.37
2019-04-04T11:17:35.777Z,31.77
2019-04-04T11:20:06.158Z,36.65
2019-04-04T11:22:35.713Z,24.32
2019-04-04T11:25:05.521Z,18.95
2019-04-04T11:27:34.974Z,45.98
2019-04-04T11:30:07.192Z,27.17
2019-04-04T11:32:36.638Z,14.87
2019-04-04T11:35:06.812Z,13.65
2019-04-04T11:37:36.663Z,21.80
2019-04-04T11:40:06.076Z,16.35
2019-04-04T11:42:35.530Z,22.48
2019-04-04T11:45:05.121Z,13.55
2019-04-04T11:47:34.666Z,15.93
2019-04-04T11:50:07.676Z,19.73
2019-04-04T11:52:37.241Z,34.35
2019-04-04T11:55:07.096Z,17.70
2019-04-04T11:57:36.858Z,30.00
2019-04-04T12:00:07.076Z,41.37
2019-04-04T12:02:36.529Z,19.25
2019-04-04T12:05:07.682Z,14.23
2019-04-04T12:07:38.557Z,13.93
2019-04-04T12:10:08.557Z,13.88
2019-04-04T12:12:38.040Z,18.87
2019-04-04T12:15:08.117Z,15.23
2019-04-04T12:17:37.570Z,12.50
2019-04-04T12:20:07.060Z,14.40
2019-04-04T12:22:36.606Z,18.40
2019-04-04T12:25:06.733Z,15.68
2019-04-04T12:27:36.192Z,17.85
2019-04-04T12:30:07.806Z,19.42
2019-04-04T12:32:37.336Z,20.92
2019-04-04T12:35:07.052Z,19.70
2019-04-04T12:37:36.593Z,26.35
2019-04-04T12:40:19.330Z,24.72
2019-04-04T12:42:38.142Z,22.55
2019-04-04T12:45:07.693Z,20.48
2019-04-04T12:47:37.277Z,25.27
2019-04-04T12:50:06.686Z,23.92
2019-04-04T12:52:37.005Z,28.10
2019-04-04T12:55:06.902Z,20.50
2019-04-04T12:57:36.441Z,19.90
2019-04-04T13:00:07.765Z,15.18
2019-04-04T13:02:37.421Z,55.55
2019-04-04T13:05:08.637Z,27.48
2019-04-04T13:07:38.238Z,24.65
2019-04-04T13:10:12.265Z,14.43
2019-04-04T13:12:41.745Z,30.15
2019-04-04T13:15:11.157Z,34.20
2019-04-04T13:17:40.696Z,14.15
2019-04-04T13:20:10.112Z,21.90
2019-04-04T13:22:39.552Z,24.35
2019-04-04T13:25:09.113Z,22.80
2019-04-04T13:27:38.551Z,21.17
2019-04-04T13:30:11.203Z,24.77
2019-04-04T13:32:40.748Z,19.80
2019-04-04T13:35:10.159Z,21.17
2019-04-04T13:37:39.607Z,32.03
2019-04-04T13:40:09.023Z,28.60
2019-04-04T13:42:38.568Z,16.32
2019-04-04T13:45:08.195Z,32.78
2019-04-04T13:47:39.402Z,17.27
2019-04-04T13:50:08.755Z,24.10
2019-04-04T13:52:38.325Z,38.05
2019-04-04T13:55:07.839Z,22.15
2019-04-04T13:57:39.337Z,155.57
2019-04-04T14:00:08.693Z,20.08
2019-04-04T14:02:38.128Z,12.35
2019-04-04T14:05:10.072Z,13.58
2019-04-04T14:07:38.987Z,24.00
2019-04-04T14:10:08.376Z,55.85
2019-04-04T14:12:37.814Z,20.62
2019-04-04T14:15:11.839Z,17.80
2019-04-04T14:17:43.794Z,24.32
2019-04-04T14:20:12.503Z,39.85
2019-04-04T14:22:41.989Z,14.40
2019-04-04T14:25:11.430Z,17.25
2019-04-04T14:27:40.898Z,32.00
2019-04-04T14:30:10.505Z,23.47
2019-04-04T14:32:39.921Z,17.23
2019-04-04T14:35:09.465Z,13.32
2019-04-04T14:37:38.876Z,17.95
2019-04-04T14:40:08.391Z,13.48
2019-04-04T14:42:37.807Z,14.75
2019-04-04T14:45:07.446Z,15.03
2019-04-04T14:47:36.934Z,19.15
2019-04-04T14:50:07.412Z,18.55
2019-04-04T14:52:39.380Z,13.93
2019-04-04T14:55:07.972Z,29.42
2019-04-04T14:57:37.397Z,17.62
2019-04-04T15:00:09.466Z,18.50
2019-04-04T15:02:38.848Z,145.85
2019-04-04T15:05:08.299Z,55.30
2019-04-04T15:07:37.804Z,22.48
2019-04-04T15:10:07.352Z,16.77
2019-04-04T15:12:36.758Z,9.25
2019-04-04T15:15:06.294Z,16.25
2019-04-04T15:17:35.800Z,13.88
2019-04-04T15:20:08.436Z,17.87
2019-04-04T15:22:37.842Z,12.53
2019-04-04T15:25:07.286Z,10.23
2019-04-04T15:27:36.733Z,15.25
2019-04-04T15:30:06.737Z,15.32
2019-04-04T15:32:36.155Z,12.43
2019-04-04T15:35:06.242Z,12.63
2019-04-04T15:37:35.759Z,14.20
2019-04-04T15:40:06.570Z,12.75
2019-04-04T15:42:36.091Z,11.15
2019-04-04T15:45:08.222Z,25.88
2019-04-04T15:47:37.643Z,10.05
2019-04-04T15:50:10.046Z,16.07
2019-04-04T15:52:39.567Z,12.53
2019-04-04T15:55:08.997Z,12.07
2019-04-04T15:57:38.508Z,7.87
2019-04-04T16:00:08.042Z,11.08
2019-04-04T16:02:37.559Z,34.40
2019-04-04T16:05:07.170Z,22.15
2019-04-04T16:07:36.587Z,18.35
2019-04-04T16:10:06.575Z,12.68
2019-04-04T16:12:35.996Z,11.35
2019-04-04T16:15:06.551Z,21.80
2019-04-04T16:17:35.951Z,9.63
2019-04-04T16:20:07.926Z,8.28
2019-04-04T16:22:37.440Z,20.82
2019-04-04T16:25:06.906Z,15.30
2019-04-04T16:27:36.339Z,183.45
2019-04-04T16:30:08.149Z,18.17
2019-04-04T16:32:37.673Z,12.75
2019-04-04T16:35:07.217Z,9.18
2019-04-04T16:37:36.625Z,9.83
2019-04-04T16:40:09.468Z,11.20
2019-04-04T16:42:39.264Z,13.00
2019-04-04T16:45:08.728Z,11.83
2019-04-04T16:47:38.112Z,9.25
2019-04-04T16:50:07.818Z,9.33
2019-04-04T16:52:37.237Z,14.20
2019-04-04T16:55:06.756Z,9.35
2019-04-04T16:57:36.161Z,14.03
2019-04-04T17:00:07.645Z,15.10
2019-04-04T17:02:37.063Z,10.65
2019-04-04T17:05:06.515Z,11.50
2019-04-04T17:07:35.952Z,78.65
2019-04-04T17:10:07.345Z,16.87
2019-04-04T17:12:36.786Z,15.75
2019-04-04T17:15:06.936Z,12.37
2019-04-04T17:17:36.384Z,44.98
2019-04-04T17:20:07.559Z,13.48
2019-04-04T17:22:37.128Z,16.12
2019-04-04T17:25:06.615Z,12.60
2019-04-04T17:27:37.324Z,11.83
2019-04-04T17:30:06.907Z,11.30
2019-04-04T17:32:36.353Z,97.75
2019-04-04T17:35:06.814Z,27.82
2019-04-04T17:37:36.252Z,19.90
2019-04-04T17:40:06.509Z,12.88
2019-04-04T17:42:37.389Z,11.65
2019-04-04T17:45:09.686Z,34.67
2019-04-04T17:47:39.829Z,49.98
2019-04-04T17:50:10.169Z,17.70
2019-04-04T17:52:40.107Z,24.82
2019-04-04T17:55:09.495Z,11.00
2019-04-04T17:57:38.941Z,14.98
2019-04-04T18:00:08.971Z,13.95
2019-04-04T18:02:38.412Z,14.15
2019-04-04T18:05:09.577Z,12.18
2019-04-04T18:07:39.025Z,22.10
2019-04-04T18:10:09.405Z,14.05
2019-04-04T18:12:40.532Z,12.28
2019-04-04T18:15:09.983Z,14.63
2019-04-04T18:17:39.415Z,32.03
2019-04-04T18:20:08.892Z,20.50
2019-04-04T18:22:38.353Z,35.13
2019-04-04T18:25:07.878Z,42.80
2019-04-04T18:27:37.431Z,72.90
2019-04-04T18:30:09.562Z,113.52
2019-04-04T18:32:39.021Z,111.15
2019-04-04T18:35:08.549Z,62.05
2019-04-04T18:37:38.203Z,63.50
2019-04-04T18:40:07.794Z,42.33
2019-04-04T18:42:37.373Z,32.00
2019-04-04T18:45:07.789Z,28.55
2019-04-04T18:47:38.280Z,34.80
2019-04-04T18:50:08.019Z,47.20
2019-04-04T18:52:37.480Z,48.23
2019-04-04T18:55:19.100Z,60.00
2019-04-04T18:57:38.730Z,198.68
2019-04-04T19:00:11.153Z,144.45
2019-04-04T19:02:41.047Z,149.65
2019-04-04T19:05:10.539Z,145.38
2019-04-04T19:07:40.111Z,138.47
2019-04-04T19:10:10.789Z,105.90
2019-04-04T19:12:40.244Z,80.92
2019-04-04T19:15:09.774Z,153.70
2019-04-04T19:17:39.232Z,96.97
2019-04-04T19:20:10.090Z,87.27
2019-04-04T19:22:39.863Z,79.25
2019-04-04T19:25:09.291Z,66.55
2019-04-04T19:27:38.748Z,74.37
2019-04-04T19:30:08.405Z,85.92
2019-04-04T19:32:38.149Z,100.82
2019-04-04T19:35:07.843Z,124.95
2019-04-04T19:37:37.404Z,111.70
2019-04-04T19:40:07.777Z,112.88
2019-04-04T19:42:37.234Z,212.45
2019-04-04T19:45:07.903Z,148.80
2019-04-04T19:47:37.364Z,145.00
2019-04-04T19:50:09.990Z,210.17
2019-04-04T19:52:39.443Z,248.93
2019-04-04T19:55:08.910Z,258.85
2019-04-04T19:57:38.367Z,449.70
2019-04-04T20:00:08.508Z,387.27
2019-04-04T20:02:37.985Z,417.95
2019-04-04T20:05:07.632Z,368.27
2019-04-04T20:07:37.059Z,292.05
2019-04-04T20:10:06.793Z,299.60
2019-04-04T20:12:36.321Z,236.30
2019-04-04T20:15:08.751Z,211.32
2019-04-04T20:17:38.322Z,143.57
2019-04-04T20:20:08.347Z,223.13
2019-04-04T20:22:37.774Z,242.97
2019-04-04T20:25:07.237Z,203.47
2019-04-04T20:27:36.968Z,173.05
2019-04-04T20:30:07.965Z,177.65
2019-04-04T20:32:37.380Z,197.70
2019-04-04T20:35:07.504Z,183.60
2019-04-04T20:37:37.102Z,166.20
2019-04-04T20:40:06.722Z,184.63
2019-04-04T20:42:36.143Z,154.47
2019-04-04T20:45:06.128Z,135.03
2019-04-04T20:47:35.556Z,119.65
2019-04-04T20:50:06.649Z,109.03
2019-04-04T20:52:36.076Z,98.60
2019-04-04T20:55:06.506Z,99.42
2019-04-04T20:57:36.043Z,82.10
2019-04-04T21:00:07.318Z,84.85
2019-04-04T21:02:37.051Z,134.72
2019-04-04T21:05:07.159Z,119.77
2019-04-04T21:07:36.588Z,137.97
2019-04-04T21:10:06.623Z,135.43
2019-04-04T21:12:36.046Z,121.42
2019-04-04T21:15:08.681Z,83.87
2019-04-04T21:17:38.093Z,69.27
2019-04-04T21:20:07.539Z,58.98
2019-04-04T21:22:36.968Z,59.53
2019-04-04T21:25:06.678Z,57.53
2019-04-04T21:27:36.094Z,48.87
2019-04-04T21:30:08.216Z,47.93
2019-04-04T21:32:37.730Z,50.43
2019-04-04T21:35:07.169Z,67.58
2019-04-04T21:37:36.587Z,49.15
2019-04-04T21:40:06.052Z,76.35
2019-04-04T21:42:35.727Z,60.30
2019-04-04T21:45:08.011Z,59.88
2019-04-04T21:47:37.532Z,51.77
2019-04-04T21:50:07.156Z,48.05
2019-04-04T21:52:37.158Z,44.42
2019-04-04T21:55:06.599Z,40.73
2019-04-04T21:57:36.028Z,476.93
2019-04-04T22:00:07.848Z,53.23
2019-04-04T22:02:37.264Z,71.10
2019-04-04T22:05:07.382Z,43.00
2019-04-04T22:07:36.805Z,37.15
2019-04-04T22:10:09.035Z,43.73
2019-04-04T22:12:38.559Z,37.65
2019-04-04T22:15:08.169Z,45.23
2019-04-04T22:17:37.595Z,38.60
2019-04-04T22:20:07.118Z,42.85
2019-04-04T22:22:36.632Z,48.50
2019-04-04T22:25:07.117Z,37.55
2019-04-04T22:27:36.615Z,41.20
2019-04-04T22:30:06.902Z,43.68
2019-04-04T22:32:36.363Z,48.35
2019-04-04T22:35:06.449Z,70.30
2019-04-04T22:37:35.898Z,57.20
2019-04-04T22:40:08.285Z,55.75
2019-04-04T22:42:37.737Z,53.08
2019-04-04T22:45:08.001Z,71.87
2019-04-04T22:47:37.436Z,72.05
2019-04-04T22:50:06.959Z,64.30
2019-04-04T22:52:36.512Z,70.95
2019-04-04T22:55:06.037Z,52.45
2019-04-04T22:57:35.507Z,56.40
2019-04-04T23:00:07.367Z,47.15
2019-04-04T23:02:36.815Z,47.70
2019-04-04T23:05:06.515Z,57.80
2019-04-04T23:07:36.063Z,34.20
2019-04-04T23:10:08.203Z,38.95
2019-04-04T23:12:37.758Z,36.03
2019-04-04T23:15:08.921Z,43.90
2019-04-04T23:17:38.572Z,36.10
2019-04-04T23:20:09.234Z,41.58
2019-04-04T23:22:51.680Z,39.75
2019-04-04T23:25:09.988Z,40.78
2019-04-04T23:27:39.529Z,35.70
2019-04-04T23:30:09.046Z,41.48
2019-04-04T23:32:38.489Z,35.78
2019-04-04T23:35:07.911Z,49.58
2019-04-04T23:37:37.454Z,55.20
2019-04-04T23:40:06.883Z,43.15
2019-04-04T23:42:36.325Z,40.10
2019-04-04T23:45:07.187Z,41.50
2019-04-04T23:47:42.702Z,42.88
2019-04-04T23:50:07.855Z,42.27
2019-04-04T23:52:37.406Z,39.98
2019-04-04T23:55:06.930Z,39.45
2019-04-04T23:57:36.369Z,79.17
